Time;durP1;ratioP1;P1;durP2;ratioP2;P2;SDS_P1;SDS_P2;PMS_P1;PMS_P2;Temp;Humidity;BMP_temperature;BMP_pressure;BME280_temperature;BME280_humidity;BME280_pressure;Samples;Min_cycle;Max_cycle;Signal;HPM_P1;HPM_P2
2023/11/22 00:01:59;;;;;;;17.83;7.65;;;;;;;4.75;100.00;102866.50;6079421;19;20078;-74
2023/11/22 00:04:01;;;;;;;20.50;8.32;;;;;;;4.78;100.00;102863.06;6082384;19;20485;-73
2023/11/22 00:06:07;;;;;;;26.30;9.85;;;;;;;4.75;100.00;102861.28;6083073;19;20517;-73
2023/11/22 00:08:12;;;;;;;23.80;9.27;;;;;;;4.72;100.00;102862.97;6082464;19;20606;-74
2023/11/22 00:10:18;;;;;;;21.98;10.13;;;;;;;4.67;100.00;102867.22;6084305;19;20106;-73
2023/11/22 00:12:24;;;;;;;24.80;9.20;;;;;;;4.65;100.00;102867.19;6084784;19;20098;-72
2023/11/22 00:14:29;;;;;;;24.98;9.70;;;;;;;4.60;100.00;102866.22;6084469;19;20003;-76
2023/11/22 00:16:37;;;;;;;23.27;9.88;;;;;;;4.54;100.00;102871.34;6083433;19;20029;-73
2023/11/22 00:18:44;;;;;;;20.75;8.73;;;;;;;4.46;100.00;102872.94;6080840;19;20029;-73
2023/11/22 00:20:50;;;;;;;19.83;8.75;;;;;;;4.41;100.00;102880.66;6077866;19;20581;-73
2023/11/22 00:22:54;;;;;;;25.80;10.25;;;;;;;4.34;100.00;102882.25;6082351;19;20285;-73
2023/11/22 00:25:01;;;;;;;18.98;9.55;;;;;;;4.30;100.00;102880.47;6083357;19;20006;-73
2023/11/22 00:27:06;;;;;;;22.42;9.15;;;;;;;4.28;100.00;102881.28;6079824;19;20022;-73
2023/11/22 00:29:14;;;;;;;18.08;8.45;;;;;;;4.28;100.00;102889.09;6083527;19;20041;-73
2023/11/22 00:31:19;;;;;;;20.52;8.57;;;;;;;4.30;100.00;102896.09;6082148;19;20002;-73
2023/11/22 00:33:25;;;;;;;23.92;8.77;;;;;;;4.26;100.00;102904.66;6082497;19;20017;-73
2023/11/22 00:35:27;;;;;;;19.35;8.73;;;;;;;4.22;100.00;102905.47;6084777;19;20014;-74
2023/11/22 00:37:34;;;;;;;18.67;7.93;;;;;;;4.22;100.00;102896.81;6084606;19;20021;-73
2023/11/22 00:39:39;;;;;;;23.05;9.18;;;;;;;4.16;100.00;102895.84;6083544;19;20023;-73
2023/11/22 00:41:42;;;;;;;16.40;7.22;;;;;;;4.18;100.00;102898.44;6084905;19;20007;-73
2023/11/22 00:43:48;;;;;;;19.83;8.18;;;;;;;4.16;100.00;102902.75;6082583;19;20070;-73
2023/11/22 00:45:57;;;;;;;18.77;8.68;;;;;;;4.21;100.00;102906.31;6084111;19;20351;-73
2023/11/22 00:48:02;;;;;;;18.35;7.82;;;;;;;4.31;100.00;102907.38;6079524;19;20467;-73
2023/11/22 00:50:14;;;;;;;26.25;10.60;;;;;;;4.40;100.00;102907.56;6078789;19;20006;-72
2023/11/22 00:52:19;;;;;;;19.02;8.63;;;;;;;4.46;100.00;102902.44;6078246;19;20365;-72
2023/11/22 00:54:26;;;;;;;23.70;10.27;;;;;;;4.46;100.00;102901.56;6080564;19;20431;-72
2023/11/22 00:56:31;;;;;;;24.08;8.85;;;;;;;4.41;100.00;102898.88;6079280;19;20011;-72
2023/11/22 00:58:35;;;;;;;21.48;9.90;;;;;;;4.38;100.00;102901.44;6081509;19;20494;-73
2023/11/22 01:00:41;;;;;;;20.38;8.45;;;;;;;4.33;100.00;102906.56;6083269;19;20362;-73
2023/11/22 01:02:49;;;;;;;25.52;10.02;;;;;;;4.30;100.00;102916.91;6083575;19;20014;-73
2023/11/22 01:04:54;;;;;;;20.27;7.75;;;;;;;4.26;100.00;102909.88;6076891;19;20003;-73
2023/11/22 01:06:59;;;;;;;23.20;9.65;;;;;;;4.29;100.00;102922.06;6084523;19;20470;-72
2023/11/22 01:09:04;;;;;;;25.60;9.30;;;;;;;4.26;100.00;102919.41;6084398;19;20015;-74
2023/11/22 01:11:12;;;;;;;23.92;10.55;;;;;;;4.25;100.00;102923.75;6082709;19;20021;-73
2023/11/22 01:13:17;;;;;;;22.30;8.73;;;;;;;4.25;100.00;102921.16;6078077;19;20392;-73
2023/11/22 01:15:23;;;;;;;21.08;9.43;;;;;;;4.19;100.00;102928.84;6080845;19;20443;-73
2023/11/22 01:17:28;;;;;;;21.55;8.95;;;;;;;4.14;100.00;102930.47;6079073;19;20518;-72
2023/11/22 01:19:35;;;;;;;24.15;9.00;;;;;;;4.04;100.00;102939.81;6084823;19;20353;-73
2023/11/22 01:21:40;;;;;;;25.15;9.43;;;;;;;4.03;100.00;102952.78;6089579;19;20010;-75
2023/11/22 01:23:49;;;;;;;28.38;9.90;;;;;;;3.96;100.00;102950.06;6090081;19;20015;-72
2023/11/22 01:25:53;;;;;;;22.90;8.45;;;;;;;3.92;100.00;102956.06;6088080;19;20364;-73
2023/11/22 01:27:58;;;;;;;14.85;9.05;;;;;;;3.88;100.00;102958.56;6088226;19;20485;-74
2023/11/22 01:30:07;;;;;;;22.08;8.35;;;;;;;3.83;100.00;102955.84;6087676;19;20011;-73
2023/11/22 01:32:13;;;;;;;27.33;10.43;;;;;;;3.82;100.00;102953.19;6083076;19;20041;-73
2023/11/22 01:34:19;;;;;;;21.75;9.02;;;;;;;3.81;100.00;102946.25;6084322;19;20011;-72
2023/11/22 01:36:27;;;;;;;19.27;8.90;;;;;;;3.77;100.00;102947.06;6087128;19;20003;-72
2023/11/22 01:38:32;;;;;;;19.83;9.25;;;;;;;3.71;100.00;102942.56;6088524;19;20006;-73
2023/11/22 01:40:37;;;;;;;24.45;10.15;;;;;;;3.67;100.00;102936.44;6089776;19;20465;-73
2023/11/22 01:42:43;;;;;;;22.73;8.65;;;;;;;3.66;100.00;102945.09;6088944;19;20372;-73
2023/11/22 01:44:49;;;;;;;18.25;8.10;;;;;;;3.62;100.00;102945.00;6088109;19;20010;-73
2023/11/22 01:46:56;;;;;;;18.05;8.57;;;;;;;3.58;100.00;102941.44;6087453;19;20023;-73
2023/11/22 01:49:03;;;;;;;22.65;7.75;;;;;;;3.56;100.00;102950.06;6087673;19;20010;-74
2023/11/22 01:51:09;;;;;;;23.35;8.73;;;;;;;3.55;100.00;102959.56;6088944;19;20472;-74
2023/11/22 01:53:19;;;;;;;18.75;8.55;;;;;;;3.52;100.00;102962.09;6086167;19;20045;-73
2023/11/22 01:55:29;;;;;;;21.70;9.02;;;;;;;3.48;100.00;102957.69;6083653;19;20002;-73
2023/11/22 01:57:34;;;;;;;19.98;8.27;;;;;;;3.46;100.00;102961.97;6089506;19;20009;-73
2023/11/22 01:59:44;;;;;;;22.25;9.48;;;;;;;3.40;100.00;102964.44;6085071;19;20050;-73
2023/11/22 02:01:52;;;;;;;19.38;8.15;;;;;;;3.38;100.00;102966.97;6086785;19;20035;-73
2023/11/22 02:03:59;;;;;;;23.92;9.23;;;;;;;3.36;100.00;102957.38;6087910;19;20003;-73
2023/11/22 02:06:05;;;;;;;15.77;7.68;;;;;;;3.36;100.00;102952.19;6088082;19;20006;-73
2023/11/22 02:08:11;;;;;;;23.30;9.25;;;;;;;3.32;100.00;102956.44;6086536;19;20034;-74
2023/11/22 02:10:19;;;;;;;24.65;9.82;;;;;;;3.29;100.00;102952.06;6088559;19;20002;-72
2023/11/22 02:12:26;;;;;;;23.90;10.27;;;;;;;3.32;100.00;102950.34;6087138;19;20020;-73
2023/11/22 02:14:30;;;;;;;21.42;7.53;;;;;;;3.30;100.00;102948.59;6087858;19;20115;-73
2023/11/22 02:16:35;;;;;;;20.10;9.05;;;;;;;3.26;100.00;102948.50;6085933;19;20470;-73
2023/11/22 02:18:42;;;;;;;20.00;8.57;;;;;;;3.24;100.00;102942.41;6086541;19;20471;-72
2023/11/22 02:20:49;;;;;;;18.70;7.55;;;;;;;3.21;100.00;102939.72;6087543;19;20010;-74
2023/11/22 02:22:56;;;;;;;18.13;7.43;;;;;;;3.24;100.00;102945.00;6087032;19;20025;-73
2023/11/22 02:25:01;;;;;;;20.95;9.23;;;;;;;3.26;100.00;102941.56;6087193;19;20006;-73
2023/11/22 02:27:07;;;;;;;19.92;8.80;;;;;;;3.36;100.00;102934.00;6087246;19;20075;-72
2023/11/22 02:29:12;;;;;;;18.35;8.45;;;;;;;3.35;100.00;102935.72;6088030;19;20334;-73
2023/11/22 02:31:14;;;;;;;19.55;9.48;;;;;;;3.32;100.00;102934.75;6083780;19;20115;-73
2023/11/22 02:33:19;;;;;;;26.40;10.20;;;;;;;3.26;100.00;102938.97;6087345;19;20106;-73
2023/11/22 02:35:24;;;;;;;23.95;8.07;;;;;;;3.24;100.00;102942.41;6081565;19;20014;-73
2023/11/22 02:37:29;;;;;;;23.33;10.02;;;;;;;3.23;100.00;102945.81;6088688;19;20017;-74
2023/11/22 02:39:43;;;;;;;20.15;8.50;;;;;;;3.21;100.00;102940.59;6085880;19;20010;-73
2023/11/22 02:41:54;;;;;;;20.73;9.40;;;;;;;3.20;100.00;102949.22;6084539;19;20454;-73
2023/11/22 02:43:59;;;;;;;24.20;9.88;;;;;;;3.21;100.00;102938.00;6085302;19;20018;-73
2023/11/22 02:46:05;;;;;;;21.80;8.45;;;;;;;3.22;100.00;102938.88;6085664;19;20038;-73
2023/11/22 02:48:10;;;;;;;17.33;7.63;;;;;;;3.30;100.00;102948.59;6081799;19;20015;-74
2023/11/22 02:50:13;;;;;;;21.92;9.18;;;;;;;3.31;100.00;102952.06;6084095;19;20702;-73
2023/11/22 02:52:18;;;;;;;23.17;8.82;;;;;;;3.28;100.00;102952.00;6084891;19;20020;-72
2023/11/22 02:54:23;;;;;;;23.15;9.68;;;;;;;3.24;100.00;102952.78;6084408;19;20011;-73
2023/11/22 02:56:28;;;;;;;23.85;9.55;;;;;;;3.23;100.00;102953.63;6086660;19;20016;-73
2023/11/22 02:58:36;;;;;;;25.73;8.82;;;;;;;3.20;100.00;102951.81;6085512;19;20038;-73
2023/11/22 03:00:43;;;;;;;21.52;9.23;;;;;;;3.21;100.00;102947.50;6083201;19;20045;-73
2023/11/22 03:02:53;;;;;;;16.52;7.90;;;;;;;3.17;100.00;102946.56;6086388;19;20077;-73
2023/11/22 03:04:59;;;;;;;20.55;9.27;;;;;;;3.16;100.00;102949.09;6082994;19;20017;-75
2023/11/22 03:07:07;;;;;;;17.92;8.48;;;;;;;3.15;100.00;102930.06;6084827;19;20024;-75
2023/11/22 03:09:13;;;;;;;19.92;7.78;;;;;;;3.16;100.00;102933.53;6083649;19;20027;-74
2023/11/22 03:11:19;;;;;;;21.77;8.90;;;;;;;3.12;100.00;102942.97;6083198;19;20003;-73
2023/11/22 03:13:27;;;;;;;19.58;8.02;;;;;;;3.11;100.00;102942.91;6085347;19;20024;-75
2023/11/22 03:15:35;;;;;;;21.08;9.93;;;;;;;3.12;100.00;102942.09;6083299;19;20444;-74
2023/11/22 03:17:41;;;;;;;20.42;8.82;;;;;;;3.13;100.00;102942.13;6083531;19;20074;-75
2023/11/22 03:19:47;;;;;;;21.95;8.93;;;;;;;3.13;100.00;102942.13;6085112;19;20006;-73
2023/11/22 03:21:52;;;;;;;22.92;10.55;;;;;;;3.12;100.00;102949.91;6084222;19;20003;-73
2023/11/22 03:23:55;;;;;;;20.75;9.27;;;;;;;3.14;100.00;102950.81;6084730;19;20502;-73
2023/11/22 03:26:03;;;;;;;20.42;7.15;;;;;;;3.18;100.00;102963.03;6086162;19;20308;-74
2023/11/22 03:28:09;;;;;;;19.50;7.15;;;;;;;3.22;100.00;102970.06;6083251;19;20006;-73
2023/11/22 03:30:17;;;;;;;21.17;8.73;;;;;;;3.20;100.00;102977.81;6083729;19;20006;-73
2023/11/22 03:32:24;;;;;;;17.92;8.35;;;;;;;3.17;100.00;102982.06;6084265;19;20530;-73
2023/11/22 03:34:29;;;;;;;21.52;9.70;;;;;;;3.20;100.00;102995.13;6082844;19;20392;-73
2023/11/22 03:36:32;;;;;;;19.58;8.93;;;;;;;3.18;100.00;102989.00;6085294;19;20334;-73
2023/11/22 03:38:40;;;;;;;20.05;7.55;;;;;;;3.15;100.00;102992.41;6084915;19;20031;-73
2023/11/22 03:40:45;;;;;;;23.23;10.10;;;;;;;3.16;100.00;103007.16;6082916;19;20011;-72
2023/11/22 03:42:52;;;;;;;21.17;9.05;;;;;;;3.19;100.00;103011.56;6082466;19;20019;-73
2023/11/22 03:44:59;;;;;;;19.23;6.90;;;;;;;3.19;100.00;103016.75;6086657;19;20018;-73
2023/11/22 03:47:06;;;;;;;21.35;8.45;;;;;;;3.21;100.00;103017.66;6086425;19;20011;-74
2023/11/22 03:49:17;;;;;;;23.77;9.75;;;;;;;3.21;100.00;103021.16;6086306;19;20711;-72
2023/11/22 03:51:22;;;;;;;20.58;8.23;;;;;;;3.21;100.00;103023.75;6087168;19;20023;-73
2023/11/22 03:53:30;;;;;;;17.20;7.65;;;;;;;3.24;100.00;103025.53;6082005;19;20079;-74
2023/11/22 03:55:35;;;;;;;18.55;8.75;;;;;;;3.24;100.00;103029.03;6082961;19;20010;-74
2023/11/22 03:57:41;;;;;;;27.35;9.40;;;;;;;3.27;100.00;103034.28;6083560;19;20086;-73
2023/11/22 03:59:44;;;;;;;23.27;9.63;;;;;;;3.29;100.00;103026.50;6086086;19;20002;-72
2023/11/22 04:01:49;;;;;;;25.02;9.30;;;;;;;3.33;100.00;103040.47;6083214;19;20011;-72
2023/11/22 04:03:54;;;;;;;20.88;8.32;;;;;;;3.31;100.00;103032.63;6084885;19;20699;-72
2023/11/22 04:06:04;;;;;;;19.80;8.95;;;;;;;3.30;100.00;103036.09;6086158;19;20014;-72
2023/11/22 04:08:13;;;;;;;18.45;9.05;;;;;;;3.28;100.00;103037.75;6084287;19;20066;-73
2023/11/22 04:10:21;;;;;;;22.73;10.00;;;;;;;3.29;100.00;103037.81;6080927;19;20402;-72
2023/11/22 04:12:24;;;;;;;18.70;8.93;;;;;;;3.30;100.00;103036.09;6083250;19;20014;-72
2023/11/22 04:14:29;;;;;;;19.75;9.65;;;;;;;3.35;100.00;103037.06;6084481;19;20011;-72
2023/11/22 04:16:34;;;;;;;17.48;7.90;;;;;;;3.34;100.00;103043.09;6085261;19;20010;-73
2023/11/22 04:18:40;;;;;;;21.13;8.82;;;;;;;3.36;100.00;103043.16;6084335;19;20031;-72
2023/11/22 04:20:46;;;;;;;20.48;8.25;;;;;;;3.37;100.00;103043.19;6081446;19;20014;-72
2023/11/22 04:22:54;;;;;;;20.13;7.35;;;;;;;3.42;100.00;103048.47;6082534;19;20062;-71
2023/11/22 04:24:59;;;;;;;21.15;8.40;;;;;;;3.40;100.00;103047.59;6082672;19;20042;-73
2023/11/22 04:27:06;;;;;;;23.65;9.70;;;;;;;3.38;100.00;103047.53;6084239;19;20041;-73
2023/11/22 04:29:11;;;;;;;23.83;10.07;;;;;;;3.41;100.00;103045.00;6082189;19;20034;-73
2023/11/22 04:31:15;;;;;;;20.05;10.10;;;;;;;3.41;100.00;103044.13;6084461;19;20010;-73
2023/11/22 04:33:20;;;;;;;24.60;9.50;;;;;;;3.38;100.00;103049.28;6084645;19;20494;-73
2023/11/22 04:35:28;;;;;;;23.15;9.45;;;;;;;3.42;100.00;103052.00;6084487;19;20451;-73
2023/11/22 04:37:33;;;;;;;23.95;8.38;;;;;;;3.51;100.00;103057.41;6083809;19;20017;-75
2023/11/22 04:39:40;;;;;;;19.58;7.95;;;;;;;3.59;100.00;103057.59;6079192;19;20082;-73
2023/11/22 04:41:47;;;;;;;18.33;8.13;;;;;;;3.54;100.00;103060.91;6082998;19;20503;-72
2023/11/22 04:43:53;;;;;;;18.13;9.73;;;;;;;3.49;100.00;103056.47;6082305;19;20045;-74
2023/11/22 04:45:58;;;;;;;19.48;9.15;;;;;;;3.57;100.00;103055.78;6083215;19;20557;-74
2023/11/22 04:48:08;;;;;;;23.98;10.75;;;;;;;3.59;100.00;103054.13;6084139;19;20021;-73
2023/11/22 04:50:16;;;;;;;26.23;9.40;;;;;;;3.55;100.00;103053.13;6081441;19;20094;-72
2023/11/22 04:52:21;;;;;;;23.83;9.55;;;;;;;3.54;100.00;103058.31;6076183;19;20006;-74
2023/11/22 04:54:27;;;;;;;22.45;9.02;;;;;;;3.54;100.00;103050.53;6081305;19;20581;-73
2023/11/22 04:56:34;;;;;;;19.48;9.73;;;;;;;3.46;100.00;103043.41;6081682;19;20006;-74
2023/11/22 04:58:39;;;;;;;23.10;8.73;;;;;;;3.45;100.00;103041.66;6082370;19;20090;-74
2023/11/22 05:00:45;;;;;;;27.80;9.52;;;;;;;3.45;100.00;103043.34;6080371;19;20011;-73
2023/11/22 05:02:50;;;;;;;19.10;8.85;;;;;;;3.46;100.00;103047.72;6082134;19;20490;-72
2023/11/22 05:04:56;;;;;;;28.40;10.23;;;;;;;3.43;100.00;103058.06;6077045;19;20007;-73
2023/11/22 05:07:03;;;;;;;22.98;8.98;;;;;;;3.42;100.00;103051.09;6080978;19;20011;-75
2023/11/22 05:09:09;;;;;;;23.52;9.93;;;;;;;3.44;100.00;103049.41;6083018;19;20020;-72
2023/11/22 05:11:18;;;;;;;22.15;9.55;;;;;;;3.42;100.00;103049.38;6082188;19;20106;-72
2023/11/22 05:13:28;;;;;;;23.38;9.20;;;;;;;3.39;100.00;103057.09;6083521;19;20499;-72
2023/11/22 05:15:35;;;;;;;24.05;9.80;;;;;;;3.42;100.00;103061.47;6083491;19;20006;-72
2023/11/22 05:17:40;;;;;;;19.38;9.40;;;;;;;3.40;100.00;103063.19;6082278;19;20037;-73
2023/11/22 05:19:46;;;;;;;25.40;8.98;;;;;;;3.45;100.00;103057.25;6085025;19;20014;-73
2023/11/22 05:21:51;;;;;;;20.05;8.55;;;;;;;3.45;100.00;103054.66;6080002;19;20006;-74
2023/11/22 05:23:57;;;;;;;24.73;9.88;;;;;;;3.47;100.00;103055.56;6082928;19;20002;-73
2023/11/22 05:26:03;;;;;;;27.15;10.75;;;;;;;3.49;100.00;103051.28;6082834;19;20006;-73
2023/11/22 05:28:08;;;;;;;24.05;10.10;;;;;;;3.50;100.00;103047.84;6083300;19;20078;-73
2023/11/22 05:30:17;;;;;;;20.45;10.07;;;;;;;3.49;100.00;103043.47;6082157;19;20233;-73
2023/11/22 05:32:22;;;;;;;26.17;11.07;;;;;;;3.45;100.00;103033.88;6081434;19;20046;-73
2023/11/22 05:34:27;;;;;;;29.88;11.48;;;;;;;3.47;100.00;103026.09;6084670;19;20017;-73
2023/11/22 05:36:32;;;;;;;29.42;11.73;;;;;;;3.48;100.00;103014.88;6083561;19;20017;-72
2023/11/22 05:38:40;;;;;;;24.70;10.93;;;;;;;3.57;100.00;103022.00;6081355;19;20448;-71
2023/11/22 05:40:45;;;;;;;29.77;12.32;;;;;;;3.60;100.00;103019.47;6079734;19;20086;-73
2023/11/22 05:42:50;;;;;;;33.35;11.88;;;;;;;3.64;100.00;103021.31;6077526;19;20031;-72
2023/11/22 05:44:57;;;;;;;24.40;10.35;;;;;;;3.69;100.00;103032.69;6082964;19;20015;-73
2023/11/22 05:47:07;;;;;;;26.80;12.30;;;;;;;3.67;100.00;103035.25;6082237;19;20660;-73
2023/11/22 05:49:15;;;;;;;26.58;11.38;;;;;;;3.76;100.00;103034.56;6080433;19;20014;-73
2023/11/22 05:51:21;;;;;;;35.03;12.57;;;;;;;3.71;100.00;103034.47;6084269;19;20015;-72
2023/11/22 05:53:26;;;;;;;28.98;11.40;;;;;;;3.70;100.00;103031.84;6077878;19;20010;-73
2023/11/22 05:55:32;;;;;;;23.10;10.60;;;;;;;3.73;100.00;103024.09;6082474;19;20772;-73
2023/11/22 05:57:37;;;;;;;26.77;11.10;;;;;;;3.70;100.00;103031.84;6080827;19;20458;-72
2023/11/22 05:59:42;;;;;;;28.17;11.82;;;;;;;3.72;100.00;103037.97;6081968;19;20018;-72
2023/11/22 06:01:47;;;;;;;32.38;12.82;;;;;;;3.73;100.00;103050.09;6081589;19;20011;-73
2023/11/22 06:03:56;;;;;;;33.15;13.13;;;;;;;3.74;100.00;103049.28;6082407;19;20022;-72
2023/11/22 06:06:03;;;;;;;29.30;14.40;;;;;;;3.76;100.00;103052.78;6083630;19;20080;-73
2023/11/22 06:08:09;;;;;;;31.75;10.98;;;;;;;3.77;100.00;103061.47;6088678;19;20021;-73
2023/11/22 06:10:15;;;;;;;32.88;12.68;;;;;;;3.72;100.00;103067.44;6083709;19;20010;-74
2023/11/22 06:12:20;;;;;;;25.95;11.73;;;;;;;3.72;100.00;103066.56;6086534;19;20006;-73
2023/11/22 06:14:25;;;;;;;27.65;11.75;;;;;;;3.71;100.00;103083.00;6088674;19;20011;-73
2023/11/22 06:16:30;;;;;;;21.55;9.65;;;;;;;3.69;100.00;103088.16;6088336;19;20013;-73
2023/11/22 06:18:40;;;;;;;34.90;13.25;;;;;;;3.69;100.00;103090.78;6086762;19;20016;-73
2023/11/22 06:20:48;;;;;;;33.70;12.77;;;;;;;3.70;100.00;103096.84;6087527;19;20021;-73
2023/11/22 06:22:53;;;;;;;39.13;15.13;;;;;;;3.73;100.00;103089.09;6087520;19;20361;-73
2023/11/22 06:24:59;;;;;;;33.13;13.70;;;;;;;3.74;100.00;103096.97;6089079;19;20033;-73
2023/11/22 06:27:05;;;;;;;30.90;11.77;;;;;;;3.76;100.00;103101.31;6086042;19;20110;-73
2023/11/22 06:29:11;;;;;;;25.83;9.73;;;;;;;3.72;100.00;103092.56;6077768;19;20098;-75
2023/11/22 06:31:18;;;;;;;32.78;12.20;;;;;;;3.76;100.00;103081.38;6087072;19;20344;-73
2023/11/22 06:33:26;;;;;;;36.10;15.15;;;;;;;3.86;100.00;103079.88;6085727;19;20447;-73
2023/11/22 06:35:31;;;;;;;34.90;12.95;;;;;;;3.92;100.00;103069.59;6085616;19;20010;-73
2023/11/22 06:37:40;;;;;;;34.05;12.82;;;;;;;3.97;100.00;103062.78;6088010;19;20524;-72
2023/11/22 06:39:47;;;;;;;38.17;12.60;;;;;;;3.96;100.00;103061.91;6087227;19;20118;-73
2023/11/22 06:41:52;;;;;;;35.97;14.18;;;;;;;3.94;100.00;103061.00;6085798;19;20093;-72
2023/11/22 06:43:57;;;;;;;36.22;13.00;;;;;;;3.90;100.00;103059.19;6087208;19;20002;-73
2023/11/22 06:46:05;;;;;;;34.78;12.27;;;;;;;3.91;100.00;103047.06;6086948;19;20003;-73
2023/11/22 06:48:10;;;;;;;31.40;11.75;;;;;;;3.88;100.00;103047.84;6083829;19;20543;-73
2023/11/22 06:50:16;;;;;;;31.92;12.13;;;;;;;3.88;100.00;103044.38;6087504;19;20011;-73
2023/11/22 06:52:22;;;;;;;29.17;12.65;;;;;;;3.82;100.00;103044.22;6085327;19;20014;-73
2023/11/22 06:54:29;;;;;;;34.15;15.20;;;;;;;3.80;100.00;103046.81;6085166;19;19999;-73
2023/11/22 06:56:38;;;;;;;31.08;11.70;;;;;;;3.81;100.00;103047.69;6086275;19;20582;-72
2023/11/22 06:58:41;;;;;;;41.65;13.77;;;;;;;3.81;100.00;103048.56;6085021;19;20038;-72
2023/11/22 07:00:48;;;;;;;35.42;14.18;;;;;;;3.78;100.00;103055.41;6085831;19;20002;-72
2023/11/22 07:02:56;;;;;;;31.20;13.30;;;;;;;3.76;100.00;103054.50;6085938;19;20013;-73
2023/11/22 07:05:13;;;;;;;37.28;14.77;;;;;;;3.75;100.00;103061.44;6086811;19;20501;-73
2023/11/22 07:07:19;;;;;;;34.60;12.18;;;;;;;3.74;100.00;103083.09;6005810;19;2004950;-73
2023/11/22 07:09:29;;;;;;;35.10;13.57;;;;;;;3.73;100.00;103081.31;6085683;19;20006;-73
2023/11/22 07:11:37;;;;;;;36.42;12.95;;;;;;;3.74;100.00;103090.88;6087445;19;20007;-73
2023/11/22 07:13:44;;;;;;;31.50;13.50;;;;;;;3.73;100.00;103099.50;6086835;19;20015;-73
2023/11/22 07:15:50;;;;;;;31.25;11.48;;;;;;;3.74;100.00;103103.88;6082904;19;20018;-73
2023/11/22 07:17:55;;;;;;;31.52;11.95;;;;;;;3.78;100.00;103117.84;6086109;19;20058;-73
2023/11/22 07:20:00;;;;;;;38.85;12.98;;;;;;;3.75;100.00;103121.25;6089221;19;20481;-73
2023/11/22 07:22:15;;;;;;;34.15;12.85;;;;;;;3.74;100.00;103114.28;6087420;19;20011;-73
2023/11/22 07:24:23;;;;;;;32.75;10.75;;;;;;;3.76;100.00;103101.31;6088727;19;20482;-73
2023/11/22 07:26:31;;;;;;;26.92;11.60;;;;;;;3.76;100.00;103104.78;6088904;19;20545;-74
2023/11/22 07:28:38;;;;;;;36.15;13.90;;;;;;;3.76;100.00;103096.09;6087373;19;20020;-74
2023/11/22 07:30:41;;;;;;;34.40;12.23;;;;;;;3.76;100.00;103094.38;6087551;19;20569;-73
2023/11/22 07:32:48;;;;;;;33.45;12.48;;;;;;;3.79;100.00;103083.16;6086257;19;20024;-73
2023/11/22 07:34:55;;;;;;;30.98;13.25;;;;;;;3.77;100.00;103095.28;6083978;19;20417;-74
2023/11/22 07:37:01;;;;;;;36.35;13.02;;;;;;;3.75;100.00;103092.63;6083395;19;20011;-73
2023/11/22 07:39:07;;;;;;;33.63;13.60;;;;;;;3.71;100.00;103098.59;6082894;19;20006;-74
2023/11/22 07:41:16;;;;;;;32.20;12.07;;;;;;;3.64;100.00;103107.97;6085496;19;20014;-74
2023/11/22 07:43:24;;;;;;;35.10;14.15;;;;;;;3.63;100.00;103116.59;6085185;19;20010;-74
2023/11/22 07:45:31;;;;;;;31.65;12.25;;;;;;;3.67;100.00;103118.44;6085211;19;20016;-73
2023/11/22 07:47:36;;;;;;;29.83;12.82;;;;;;;3.69;100.00;103123.69;6082317;19;19998;-74
2023/11/22 07:49:42;;;;;;;30.20;13.73;;;;;;;3.68;100.00;103132.31;6077490;19;20010;-74
2023/11/22 07:51:51;;;;;;;36.85;14.68;;;;;;;3.67;100.00;103131.44;6083351;19;20007;-73
2023/11/22 07:53:56;;;;;;;31.40;12.43;;;;;;;3.66;100.00;103132.31;6078753;19;20028;-74
2023/11/22 07:56:04;;;;;;;36.63;12.38;;;;;;;3.68;100.00;103134.91;6084232;19;20019;-73
2023/11/22 07:58:11;;;;;;;34.58;14.52;;;;;;;3.68;100.00;103142.72;6082560;19;20465;-73
2023/11/22 08:00:23;;;;;;;33.42;14.25;;;;;;;3.73;100.00;103149.78;6081175;19;20007;-74
2023/11/22 08:02:25;;;;;;;39.63;14.27;;;;;;;3.77;100.00;103142.97;6083287;19;20041;-76
2023/11/22 08:04:32;;;;;;;30.80;12.95;;;;;;;3.77;100.00;103149.91;6081376;19;20022;-74
2023/11/22 08:06:38;;;;;;;33.67;13.68;;;;;;;3.75;100.00;103152.44;6081742;19;20002;-74
2023/11/22 08:08:45;;;;;;;32.17;12.98;;;;;;;3.71;100.00;103150.59;6084418;19;20013;-74
2023/11/22 08:10:53;;;;;;;37.53;14.23;;;;;;;3.72;100.00;103150.66;6083532;19;20027;-74
2023/11/22 08:13:03;;;;;;;32.65;12.77;;;;;;;3.75;100.00;103144.66;6084166;19;20511;-75
2023/11/22 08:15:12;;;;;;;30.40;12.88;;;;;;;3.87;100.00;103149.25;6079836;19;20006;-75
2023/11/22 08:17:22;;;;;;;32.47;14.48;;;;;;;3.89;100.00;103147.56;6082358;19;20050;-73
2023/11/22 08:19:28;;;;;;;34.03;14.82;;;;;;;3.94;100.00;103156.38;6081949;19;20002;-72
2023/11/22 08:21:33;;;;;;;40.65;14.10;;;;;;;4.03;100.00;103155.69;6084893;19;20450;-74
2023/11/22 08:23:38;;;;;;;38.55;13.55;;;;;;;4.04;100.00;103153.16;6083221;19;20240;-75
2023/11/22 08:25:43;;;;;;;38.03;13.48;;;;;;;4.03;100.00;103156.59;6081061;19;20390;-74
2023/11/22 08:27:51;;;;;;;42.40;16.02;;;;;;;4.10;100.00;103153.28;6086075;19;20471;-74
2023/11/22 08:29:56;;;;;;;31.27;11.63;;;;;;;4.15;100.00;103161.22;6079239;19;20034;-74
2023/11/22 08:32:03;;;;;;;39.03;14.68;;;;;;;4.16;100.00;103160.34;6082904;19;20509;-76
2023/11/22 08:34:11;;;;;;;37.53;14.32;;;;;;;4.17;100.00;103172.53;6080188;19;20021;-74
2023/11/22 08:36:18;;;;;;;40.10;14.90;;;;;;;4.16;100.00;103168.16;6084299;19;20021;-74
2023/11/22 08:38:23;;;;;;;37.50;13.43;;;;;;;4.22;100.00;103165.72;6087624;19;20518;-74
2023/11/22 08:40:30;;;;;;;33.42;12.20;;;;;;;4.26;100.00;103161.44;6078180;19;20009;-74
2023/11/22 08:42:37;;;;;;;33.83;13.02;;;;;;;4.23;100.00;103158.78;6077799;19;20529;-73
2023/11/22 08:44:43;;;;;;;39.60;13.43;;;;;;;4.29;100.00;103161.50;6081539;19;20395;-73
2023/11/22 08:46:49;;;;;;;36.33;14.15;;;;;;;4.34;100.00;103152.09;6083806;19;20014;-73
2023/11/22 08:48:56;;;;;;;35.67;14.15;;;;;;;4.30;100.00;103145.94;6084345;19;20011;-73
2023/11/22 08:51:07;;;;;;;36.80;12.60;;;;;;;4.40;100.00;103157.47;6078869;19;20074;-73
2023/11/22 08:53:13;;;;;;;39.55;14.68;;;;;;;4.44;100.00;103140.16;6080010;19;20108;-74
2023/11/22 08:55:20;;;;;;;38.80;15.38;;;;;;;4.42;100.00;103139.25;6083934;19;20011;-73
2023/11/22 08:57:25;;;;;;;34.90;12.82;;;;;;;4.46;100.00;103141.09;6081526;19;20034;-73
2023/11/22 08:59:32;;;;;;;34.38;14.18;;;;;;;4.55;100.00;103141.28;6080931;19;20007;-73
2023/11/22 09:01:37;;;;;;;36.22;13.82;;;;;;;4.56;100.00;103148.25;6081361;19;20006;-73
2023/11/22 09:03:43;;;;;;;41.28;13.80;;;;;;;4.62;100.00;103145.78;6083771;19;20027;-73
2023/11/22 09:05:49;;;;;;;39.35;14.48;;;;;;;4.64;100.00;103141.47;6082830;19;20353;-73
2023/11/22 09:07:58;;;;;;;31.83;14.30;;;;;;;4.65;100.00;103143.22;6081498;19;20002;-74
2023/11/22 09:10:18;;;;;;;44.72;14.40;;;;;;;4.73;100.00;103144.25;6083630;19;20068;-74
2023/11/22 09:12:27;;;;;;;34.03;15.20;;;;;;;4.78;100.00;103150.44;6081225;19;20025;-74
2023/11/22 09:14:33;;;;;;;39.13;15.73;;;;;;;4.77;100.00;103151.31;6083780;19;20070;-74
2023/11/22 09:16:38;;;;;;;38.55;14.40;;;;;;;4.77;100.00;103159.13;6082970;19;20014;-76
2023/11/22 09:18:47;;;;;;;42.90;17.35;;;;;;;4.89;100.00;103161.09;6078563;19;20074;-74
2023/11/22 09:20:52;;;;;;;43.53;15.05;;;;;;;4.89;100.00;103160.22;6081889;19;20029;-72
2023/11/22 09:23:00;;;;;;;40.40;16.30;;;;;;;4.99;100.00;103164.75;6080414;19;20014;-73
2023/11/22 09:25:11;;;;;;;37.10;14.07;;;;;;;4.94;100.00;103151.63;6083367;19;20033;-75
2023/11/22 09:27:17;;;;;;;33.40;13.48;;;;;;;5.01;100.00;103150.91;6081847;19;20018;-74
2023/11/22 09:29:20;;;;;;;38.55;14.15;;;;;;;5.01;100.00;103156.13;6081922;19;20102;-75
2023/11/22 09:31:26;;;;;;;39.38;14.98;;;;;;;5.10;100.00;103157.16;6083989;19;20018;-77
2023/11/22 09:33:36;;;;;;;39.70;15.02;;;;;;;5.18;100.00;103150.34;6084694;19;20746;-73
2023/11/22 09:35:55;;;;;;;41.78;14.27;;;;;;;5.22;100.00;103147.84;6082641;19;20339;-74
2023/11/22 09:38:09;;;;;;;40.80;16.25;;;;;;;5.17;100.00;103144.28;6077175;19;20019;-73
2023/11/22 09:40:13;;;;;;;35.85;15.82;;;;;;;5.24;100.00;103142.69;6085555;19;20006;-74